Mc Allen Miller International Airport
KMFE : now visible

Airfield :











YOU CAN JOIN US ON...

 
LOGIN :

Register | Disclaimer

   EN    FR    IT 

 









Legend :    VFR   Marginal VFR   IFR   Intensive IFR   Very Intensive IFR
Visi :
Ceiling :
>= 8 km
>= 3000ft
5 to 8 km
1000 to 3000 ft
1500m to 5 km
500 to 1000 ft
800 to 1500m
200 to 500 ft
< 800m
< 200 ft
Symbols :   Thunderstorms  Fog  Heavy snow  Heavy precipitations  Wind > 20 kt






- Airport Elevation : 107 ft
- IATA code : MFE


KMFE - Mc Allen Miller International

CURRENT METAR :
  • 161153Z AUTO 17008G15KT 7SM BKN015 23/20 A2973 RMK AO2 SLP067 T02330200 10244 20233 53005

EXPIRED METARs :
  • 161053Z AUTO 16013KT 7SM OVC015 23/20 A2971 RMK AO2 SLP059 T02330200
  • 161011Z AUTO 18011KT 7SM BKN017 24/20 A2973 RMK AO2 T02390200
  • 160953Z AUTO 15016G27KT 7SM SCT017 23/20 A2971 RMK AO2 PK WND 16031/0908 SLP058 T02330200

TAF KMFE
Valid from the 16 at 12:00 until the 17 at 12:00 UTC


161120Z 1612/1712 17012G18KT P6SM BKN015 BKN250
FM161400 20012KT P6SM SCT020 BKN250
FM161700 25012KT P6SM FEW018 BKN250
FM162000 33014G20KT P6SM FEW030 BKN250
FM162300 36016G24KT P6SM BKN250



MET'MAP, your aeronautical weather chart ! - Copyright ORBIFLY December 2007 - Disclaimer

ORBIFLY MET'MAP TEAM :

Programming & Development : Alexandra Zaïnal
Concept & original design : Baudouin d'Aumeries
Assistance for programming : Marc-Olivier Méhu
Technical & hardware support : Manuel Goepfert

Contact : metmap@orbifly.com




SOURCES & CREDITS :

   NOAA       Earth
Advisory